sensor_id;sensor_type;location;lat;lon;timestamp;pressure;altitude;pressure_sealevel;temperature;humidity
11678;BME280;5895;41.950;24.372;2022-07-05T00:01:21;87275.53;;;16.51;61.40
11678;BME280;5895;41.950;24.372;2022-07-05T00:03:49;87281.25;;;16.48;61.39
11678;BME280;5895;41.950;24.372;2022-07-05T00:06:16;87276.53;;;16.45;61.57
11678;BME280;5895;41.950;24.372;2022-07-05T00:08:43;87279.38;;;16.43;61.27
11678;BME280;5895;41.950;24.372;2022-07-05T00:11:10;87275.44;;;16.40;61.70
11678;BME280;5895;41.950;24.372;2022-07-05T00:13:38;87285.91;;;16.40;61.49
11678;BME280;5895;41.950;24.372;2022-07-05T00:16:06;87279.09;;;16.39;61.66
11678;BME280;5895;41.950;24.372;2022-07-05T00:18:33;87269.91;;;16.37;61.53
11678;BME280;5895;41.950;24.372;2022-07-05T00:21:00;87265.19;;;16.34;61.75
11678;BME280;5895;41.950;24.372;2022-07-05T00:23:27;87271.69;;;16.31;61.87
11678;BME280;5895;41.950;24.372;2022-07-05T00:25:54;87272.97;;;16.29;61.97
11678;BME280;5895;41.950;24.372;2022-07-05T00:28:21;87268.53;;;16.29;62.26
11678;BME280;5895;41.950;24.372;2022-07-05T00:30:50;87265.34;;;16.27;62.45
11678;BME280;5895;41.950;24.372;2022-07-05T00:33:17;87259.53;;;16.20;62.16
11678;BME280;5895;41.950;24.372;2022-07-05T00:35:44;87270.00;;;16.20;62.12
11678;BME280;5895;41.950;24.372;2022-07-05T00:38:11;87266.34;;;16.21;62.38
11678;BME280;5895;41.950;24.372;2022-07-05T00:40:38;87263.19;;;16.19;62.49
11678;BME280;5895;41.950;24.372;2022-07-05T00:43:05;87258.44;;;16.16;62.43
11678;BME280;5895;41.950;24.372;2022-07-05T00:45:33;87262.66;;;16.17;62.52
11678;BME280;5895;41.950;24.372;2022-07-05T00:48:01;87262.88;;;16.16;62.69
11678;BME280;5895;41.950;24.372;2022-07-05T00:50:29;87254.75;;;16.12;62.60
11678;BME280;5895;41.950;24.372;2022-07-05T00:52:56;87257.91;;;16.14;62.53
11678;BME280;5895;41.950;24.372;2022-07-05T00:55:24;87255.81;;;16.16;62.81
11678;BME280;5895;41.950;24.372;2022-07-05T00:57:51;87254.03;;;16.17;62.82
11678;BME280;5895;41.950;24.372;2022-07-05T01:00:19;87252.72;;;16.19;62.69
11678;BME280;5895;41.950;24.372;2022-07-05T01:02:46;87260.03;;;16.17;62.80
11678;BME280;5895;41.950;24.372;2022-07-05T01:05:15;87256.91;;;16.20;62.89
11678;BME280;5895;41.950;24.372;2022-07-05T01:07:42;87253.56;;;16.25;62.75
11678;BME280;5895;41.950;24.372;2022-07-05T01:10:10;87243.91;;;16.30;62.57
11678;BME280;5895;41.950;24.372;2022-07-05T01:12:38;87249.16;;;16.30;62.83
11678;BME280;5895;41.950;24.372;2022-07-05T01:15:07;87238.94;;;16.29;62.72
11678;BME280;5895;41.950;24.372;2022-07-05T01:17:35;87245.44;;;16.26;62.67
11678;BME280;5895;41.950;24.372;2022-07-05T01:20:04;87236.03;;;16.25;62.53
11678;BME280;5895;41.950;24.372;2022-07-05T01:22:49;87231.81;;;16.24;64.76
11678;BME280;5895;41.950;24.372;2022-07-05T01:25:19;87229.47;;;16.23;62.45
11678;BME280;5895;41.950;24.372;2022-07-05T01:27:47;87228.13;;;16.20;62.85
11678;BME280;5895;41.950;24.372;2022-07-05T01:30:14;87227.84;;;16.22;62.47
11678;BME280;5895;41.950;24.372;2022-07-05T01:32:42;87231.53;;;16.21;63.08
11678;BME280;5895;41.950;24.372;2022-07-05T01:35:10;87226.06;;;16.22;63.03
11678;BME280;5895;41.950;24.372;2022-07-05T01:37:39;87228.13;;;16.20;63.21
11678;BME280;5895;41.950;24.372;2022-07-05T01:40:07;87220.53;;;16.19;62.71
11678;BME280;5895;41.950;24.372;2022-07-05T01:42:34;87229.13;;;16.14;63.00
11678;BME280;5895;41.950;24.372;2022-07-05T01:45:02;87222.78;;;16.10;63.08
11678;BME280;5895;41.950;24.372;2022-07-05T01:47:29;87221.78;;;16.11;63.25
11678;BME280;5895;41.950;24.372;2022-07-05T01:49:58;87227.03;;;16.16;63.60
11678;BME280;5895;41.950;24.372;2022-07-05T01:52:27;87227.03;;;16.16;63.74
11678;BME280;5895;41.950;24.372;2022-07-05T01:54:58;87221.22;;;16.09;62.95
11678;BME280;5895;41.950;24.372;2022-07-05T01:57:27;87221.09;;;15.99;63.34
11678;BME280;5895;41.950;24.372;2022-07-05T01:59:54;87224.19;;;15.91;63.48
11678;BME280;5895;41.950;24.372;2022-07-05T02:02:21;87218.38;;;15.83;63.91
11678;BME280;5895;41.950;24.372;2022-07-05T02:04:49;87218.06;;;15.80;63.76
11678;BME280;5895;41.950;24.372;2022-07-05T02:07:16;87216.19;;;15.75;63.78
11678;BME280;5895;41.950;24.372;2022-07-05T02:09:43;87219.31;;;15.72;64.18
11678;BME280;5895;41.950;24.372;2022-07-05T02:12:12;87221.13;;;15.72;64.27
11678;BME280;5895;41.950;24.372;2022-07-05T02:14:39;87216.69;;;15.72;64.06
11678;BME280;5895;41.950;24.372;2022-07-05T02:17:06;87210.66;;;15.72;63.99
11678;BME280;5895;41.950;24.372;2022-07-05T02:19:35;87216.69;;;15.72;64.69
11678;BME280;5895;41.950;24.372;2022-07-05T02:22:04;87220.81;;;15.68;64.02
11678;BME280;5895;41.950;24.372;2022-07-05T02:24:31;87224.47;;;15.67;64.30
11678;BME280;5895;41.950;24.372;2022-07-05T02:26:59;87222.34;;;15.64;64.34
11678;BME280;5895;41.950;24.372;2022-07-05T02:29:27;87229.31;;;15.58;64.43
11678;BME280;5895;41.950;24.372;2022-07-05T02:31:54;87226.41;;;15.55;64.45
11678;BME280;5895;41.950;24.372;2022-07-05T02:34:21;87236.09;;;15.54;64.36
11678;BME280;5895;41.950;24.372;2022-07-05T02:36:48;87233.41;;;15.49;64.47
11678;BME280;5895;41.950;24.372;2022-07-05T02:39:16;87232.06;;;15.47;64.64
11678;BME280;5895;41.950;24.372;2022-07-05T02:41:43;87229.94;;;15.44;64.55
11678;BME280;5895;41.950;24.372;2022-07-05T02:44:10;87224.16;;;15.42;64.37
11678;BME280;5895;41.950;24.372;2022-07-05T02:46:38;87224.41;;;15.40;64.77
11678;BME280;5895;41.950;24.372;2022-07-05T02:49:05;87225.69;;;15.38;64.71
11678;BME280;5895;41.950;24.372;2022-07-05T02:51:33;87229.31;;;15.37;64.80
11678;BME280;5895;41.950;24.372;2022-07-05T02:54:00;87225.13;;;15.35;64.81
11678;BME280;5895;41.950;24.372;2022-07-05T02:56:27;87229.31;;;15.37;64.74
11678;BME280;5895;41.950;24.372;2022-07-05T02:58:54;87233.75;;;15.36;64.96
11678;BME280;5895;41.950;24.372;2022-07-05T03:01:21;87219.66;;;15.37;64.67
11678;BME280;5895;41.950;24.372;2022-07-05T03:03:50;87224.41;;;15.40;64.89
11678;BME280;5895;41.950;24.372;2022-07-05T03:06:17;87219.47;;;15.44;64.56
11678;BME280;5895;41.950;24.372;2022-07-05T03:08:44;87229.94;;;15.44;64.68
11678;BME280;5895;41.950;24.372;2022-07-05T03:11:11;87231.53;;;15.45;64.97
11678;BME280;5895;41.950;24.372;2022-07-05T03:13:38;87223.69;;;15.45;64.72
11678;BME280;5895;41.950;24.372;2022-07-05T03:16:05;87226.88;;;15.52;64.71
11678;BME280;5895;41.950;24.372;2022-07-05T03:18:32;87230.09;;;15.59;64.55
11678;BME280;5895;41.950;24.372;2022-07-05T03:21:01;87227.00;;;15.62;64.42
11678;BME280;5895;41.950;24.372;2022-07-05T03:23:28;87222.81;;;15.61;64.62
11678;BME280;5895;41.950;24.372;2022-07-05T03:25:55;87225.44;;;15.61;64.73
11678;BME280;5895;41.950;24.372;2022-07-05T03:28:23;87222.25;;;15.59;64.71
11678;BME280;5895;41.950;24.372;2022-07-05T03:30:50;87223.28;;;15.58;64.58
11678;BME280;5895;41.950;24.372;2022-07-05T03:33:17;87219.63;;;15.59;64.62
11678;BME280;5895;41.950;24.372;2022-07-05T03:35:45;87219.41;;;15.60;65.07
11678;BME280;5895;41.950;24.372;2022-07-05T03:38:13;87210.22;;;15.58;64.78
11678;BME280;5895;41.950;24.372;2022-07-05T03:40:40;87219.88;;;15.57;64.83
11678;BME280;5895;41.950;24.372;2022-07-05T03:43:07;87214.97;;;15.61;64.71
11678;BME280;5895;41.950;24.372;2022-07-05T03:45:34;87215.53;;;15.63;64.85
11678;BME280;5895;41.950;24.372;2022-07-05T03:48:02;87215.28;;;15.65;65.11
11678;BME280;5895;41.950;24.372;2022-07-05T03:50:29;87222.34;;;15.64;64.92
11678;BME280;5895;41.950;24.372;2022-07-05T03:52:56;87219.25;;;15.67;64.65
11678;BME280;5895;41.950;24.372;2022-07-05T03:55:25;87216.38;;;15.69;64.96
11678;BME280;5895;41.950;24.372;2022-07-05T03:57:52;87228.97;;;15.72;65.07
11678;BME280;5895;41.950;24.372;2022-07-05T04:00:19;87209.38;;;15.74;64.71
11678;BME280;5895;41.950;24.372;2022-07-05T04:02:46;87212.53;;;15.76;65.00
11678;BME280;5895;41.950;24.372;2022-07-05T04:05:13;87200.00;;;15.78;64.53
11678;BME280;5895;41.950;24.372;2022-07-05T04:07:48;87208.38;;;15.80;66.30
11678;BME280;5895;41.950;24.372;2022-07-05T04:10:15;87204.78;;;15.86;64.56
11678;BME280;5895;41.950;24.372;2022-07-05T04:12:44;87198.00;;;15.91;64.64
11678;BME280;5895;41.950;24.372;2022-07-05T04:15:12;87201.16;;;15.93;64.70
11678;BME280;5895;41.950;24.372;2022-07-05T04:17:49;87198.53;;;15.93;67.40
11678;BME280;5895;41.950;24.372;2022-07-05T04:20:17;87200.13;;;15.94;64.94
11678;BME280;5895;41.950;24.372;2022-07-05T04:22:46;87199.09;;;15.95;64.87
11678;BME280;5895;41.950;24.372;2022-07-05T04:25:13;87193.63;;;15.96;64.99
11678;BME280;5895;41.950;24.372;2022-07-05T04:27:45;87199.38;;;15.98;65.35
11678;BME280;5895;41.950;24.372;2022-07-05T04:30:14;87200.16;;;15.99;65.40
11678;BME280;5895;41.950;24.372;2022-07-05T04:32:42;87200.97;;;15.99;65.22
11678;BME280;5895;41.950;24.372;2022-07-05T04:35:09;87212.78;;;16.02;65.34
11678;BME280;5895;41.950;24.372;2022-07-05T04:37:37;87195.53;;;16.06;65.45
11678;BME280;5895;41.950;24.372;2022-07-05T04:40:06;87198.69;;;16.08;65.31
11678;BME280;5895;41.950;24.372;2022-07-05T04:42:34;87203.44;;;16.11;65.59
11678;BME280;5895;41.950;24.372;2022-07-05T04:45:03;87207.13;;;16.15;65.91
11678;BME280;5895;41.950;24.372;2022-07-05T04:47:31;87198.78;;;16.18;65.67
11678;BME280;5895;41.950;24.372;2022-07-05T04:50:00;87197.53;;;16.26;65.82
11678;BME280;5895;41.950;24.372;2022-07-05T04:52:27;87211.19;;;16.33;65.43
11678;BME280;5895;41.950;24.372;2022-07-05T04:54:54;87209.19;;;16.40;65.09
11678;BME280;5895;41.950;24.372;2022-07-05T04:57:21;87206.91;;;16.54;64.96
11678;BME280;5895;41.950;24.372;2022-07-05T04:59:48;87215.91;;;16.63;65.28
11678;BME280;5895;41.950;24.372;2022-07-05T05:02:17;87226.47;;;16.73;65.06
11678;BME280;5895;41.950;24.372;2022-07-05T05:04:44;87216.88;;;16.84;64.76
11678;BME280;5895;41.950;24.372;2022-07-05T05:07:11;87216.13;;;16.93;65.01
11678;BME280;5895;41.950;24.372;2022-07-05T05:09:39;87216.97;;;17.04;64.62
11678;BME280;5895;41.950;24.372;2022-07-05T05:12:06;87209.44;;;17.13;65.00
11678;BME280;5895;41.950;24.372;2022-07-05T05:14:33;87208.44;;;17.24;64.43
11678;BME280;5895;41.950;24.372;2022-07-05T05:19:32;87214.84;;;17.54;64.12
11678;BME280;5895;41.950;24.372;2022-07-05T05:22:00;87203.81;;;17.47;65.55
11678;BME280;5895;41.950;24.372;2022-07-05T05:24:27;87240.09;;;17.70;64.98
11678;BME280;5895;41.950;24.372;2022-07-05T05:26:54;87217.25;;;17.65;64.61
11678;BME280;5895;41.950;24.372;2022-07-05T05:29:22;87239.94;;;17.92;65.43
11678;BME280;5895;41.950;24.372;2022-07-05T05:31:49;87205.00;;;17.81;64.72
11678;BME280;5895;41.950;24.372;2022-07-05T05:34:16;87207.41;;;17.93;63.26
11678;BME280;5895;41.950;24.372;2022-07-05T05:39:12;87216.66;;;18.36;62.89
11678;BME280;5895;41.950;24.372;2022-07-05T05:41:39;87216.16;;;18.49;61.57
11678;BME280;5895;41.950;24.372;2022-07-05T05:44:07;87209.84;;;18.61;60.62
11678;BME280;5895;41.950;24.372;2022-07-05T05:46:35;87219.84;;;18.74;60.69
11678;BME280;5895;41.950;24.372;2022-07-05T05:49:02;87215.91;;;18.87;60.86
11678;BME280;5895;41.950;24.372;2022-07-05T05:51:29;87220.91;;;18.98;60.57
11678;BME280;5895;41.950;24.372;2022-07-05T05:53:57;87216.16;;;19.11;60.20
11678;BME280;5895;41.950;24.372;2022-07-05T05:56:26;87217.69;;;19.22;59.87
11678;BME280;5895;41.950;24.372;2022-07-05T05:58:53;87223.72;;;19.33;59.49
11678;BME280;5895;41.950;24.372;2022-07-05T06:01:20;87224.50;;;19.43;59.53
11678;BME280;5895;41.950;24.372;2022-07-05T06:03:47;87222.34;;;19.55;59.17
11678;BME280;5895;41.950;24.372;2022-07-05T06:06:15;87224.72;;;19.67;58.89
11678;BME280;5895;41.950;24.372;2022-07-05T06:08:42;87229.16;;;19.77;58.98
11678;BME280;5895;41.950;24.372;2022-07-05T06:11:09;87229.13;;;19.87;58.71
11678;BME280;5895;41.950;24.372;2022-07-05T06:13:37;87224.59;;;19.98;58.59
11678;BME280;5895;41.950;24.372;2022-07-05T06:16:06;87225.84;;;20.11;58.20
11678;BME280;5895;41.950;24.372;2022-07-05T06:18:33;87231.31;;;20.19;58.06
11678;BME280;5895;41.950;24.372;2022-07-05T06:21:01;87230.00;;;20.27;58.16
11678;BME280;5895;41.950;24.372;2022-07-05T06:23:28;87228.34;;;20.36;57.86
11678;BME280;5895;41.950;24.372;2022-07-05T06:25:55;87218.00;;;20.45;57.78
11678;BME280;5895;41.950;24.372;2022-07-05T06:28:22;87222.47;;;20.54;57.24
11678;BME280;5895;41.950;24.372;2022-07-05T06:30:51;87216.06;;;20.66;56.99
11678;BME280;5895;41.950;24.372;2022-07-05T06:33:19;87223.09;;;20.75;56.98
11678;BME280;5895;41.950;24.372;2022-07-05T06:35:46;87223.59;;;20.82;56.69
11678;BME280;5895;41.950;24.372;2022-07-05T06:38:13;87229.56;;;20.93;56.66
11678;BME280;5895;41.950;24.372;2022-07-05T06:40:41;87228.19;;;21.01;56.71
11678;BME280;5895;41.950;24.372;2022-07-05T06:43:11;87227.56;;;21.09;56.63
11678;BME280;5895;41.950;24.372;2022-07-05T06:45:38;87225.94;;;21.18;56.19
11678;BME280;5895;41.950;24.372;2022-07-05T06:48:08;87227.16;;;21.26;55.67
11678;BME280;5895;41.950;24.372;2022-07-05T06:50:36;87219.69;;;21.38;55.85
11678;BME280;5895;41.950;24.372;2022-07-05T06:53:05;87224.88;;;21.48;55.42
11678;BME280;5895;41.950;24.372;2022-07-05T06:55:32;87220.84;;;21.56;55.39
11678;BME280;5895;41.950;24.372;2022-07-05T06:58:01;87216.31;;;21.61;55.27
11678;BME280;5895;41.950;24.372;2022-07-05T07:00:29;87217.81;;;21.68;55.19
11678;BME280;5895;41.950;24.372;2022-07-05T07:02:57;87216.91;;;21.77;54.93
11678;BME280;5895;41.950;24.372;2022-07-05T07:05:26;87219.72;;;21.86;54.49
11678;BME280;5895;41.950;24.372;2022-07-05T07:07:54;87217.03;;;21.91;54.20
11678;BME280;5895;41.950;24.372;2022-07-05T07:10:38;87215.84;;;22.02;54.43
11678;BME280;5895;41.950;24.372;2022-07-05T07:13:05;87210.72;;;22.11;54.15
11678;BME280;5895;41.950;24.372;2022-07-05T07:15:33;87215.09;;;22.21;54.40
11678;BME280;5895;41.950;24.372;2022-07-05T07:18:00;87212.84;;;22.33;53.99
11678;BME280;5895;41.950;24.372;2022-07-05T07:20:29;87212.69;;;22.43;53.82
11678;BME280;5895;41.950;24.372;2022-07-05T07:22:56;87212.56;;;22.53;53.47
11678;BME280;5895;41.950;24.372;2022-07-05T07:25:23;87217.00;;;22.58;53.65
11678;BME280;5895;41.950;24.372;2022-07-05T07:27:53;87214.78;;;22.65;53.23
11678;BME280;5895;41.950;24.372;2022-07-05T07:30:21;87215.84;;;22.64;53.03
11678;BME280;5895;41.950;24.372;2022-07-05T07:32:49;87222.94;;;22.68;53.05
11678;BME280;5895;41.950;24.372;2022-07-05T07:35:16;87225.78;;;22.72;53.13
11678;BME280;5895;41.950;24.372;2022-07-05T07:37:45;87224.63;;;22.78;52.47
11678;BME280;5895;41.950;24.372;2022-07-05T07:40:12;87231.72;;;22.83;52.90
11678;BME280;5895;41.950;24.372;2022-07-05T07:42:39;87224.78;;;22.87;52.37
11678;BME280;5895;41.950;24.372;2022-07-05T07:45:08;87222.59;;;22.94;52.15
11678;BME280;5895;41.950;24.372;2022-07-05T07:47:36;87224.59;;;23.02;51.80
11678;BME280;5895;41.950;24.372;2022-07-05T07:50:04;87230.28;;;23.09;52.05
11678;BME280;5895;41.950;24.372;2022-07-05T07:52:32;87225.03;;;23.23;52.29
11678;BME280;5895;41.950;24.372;2022-07-05T07:55:01;87226.72;;;23.33;51.42
11678;BME280;5895;41.950;24.372;2022-07-05T07:57:29;87230.31;;;23.42;51.57
11678;BME280;5895;41.950;24.372;2022-07-05T07:59:56;87235.00;;;23.45;51.50
11678;BME280;5895;41.950;24.372;2022-07-05T08:02:23;87227.84;;;23.45;51.16
11678;BME280;5895;41.950;24.372;2022-07-05T08:04:50;87232.56;;;23.48;51.49
11678;BME280;5895;41.950;24.372;2022-07-05T08:07:18;87238.09;;;23.52;51.84
11678;BME280;5895;41.950;24.372;2022-07-05T08:09:46;87239.06;;;23.56;51.37
11678;BME280;5895;41.950;24.372;2022-07-05T08:12:14;87238.91;;;23.66;51.43
11678;BME280;5895;41.950;24.372;2022-07-05T08:14:42;87238.53;;;23.73;51.11
11678;BME280;5895;41.950;24.372;2022-07-05T08:17:09;87245.13;;;23.75;51.02
11678;BME280;5895;41.950;24.372;2022-07-05T08:19:36;87239.13;;;23.84;50.73
11678;BME280;5895;41.950;24.372;2022-07-05T08:22:21;87238.66;;;23.82;50.60
11678;BME280;5895;41.950;24.372;2022-07-05T08:24:48;87246.91;;;23.80;50.52
11678;BME280;5895;41.950;24.372;2022-07-05T08:27:17;87245.03;;;23.94;50.28
11678;BME280;5895;41.950;24.372;2022-07-05T08:29:44;87245.03;;;23.94;50.28
11678;BME280;5895;41.950;24.372;2022-07-05T08:32:12;87240.94;;;24.02;50.74
11678;BME280;5895;41.950;24.372;2022-07-05T08:34:39;87240.34;;;24.05;50.10
11678;BME280;5895;41.950;24.372;2022-07-05T08:37:07;87243.88;;;24.14;50.49
11678;BME280;5895;41.950;24.372;2022-07-05T08:39:35;87244.25;;;24.21;50.04
11678;BME280;5895;41.950;24.372;2022-07-05T08:42:03;87238.88;;;24.26;50.07
11678;BME280;5895;41.950;24.372;2022-07-05T08:44:38;87248.78;;;24.35;48.39
11678;BME280;5895;41.950;24.372;2022-07-05T08:47:08;87239.97;;;24.39;48.41
11678;BME280;5895;41.950;24.372;2022-07-05T08:49:37;87242.09;;;24.51;49.75
11678;BME280;5895;41.950;24.372;2022-07-05T08:52:09;87235.59;;;24.57;49.77
11678;BME280;5895;41.950;24.372;2022-07-05T08:54:36;87248.66;;;24.67;49.57
11678;BME280;5895;41.950;24.372;2022-07-05T08:57:04;87239.41;;;24.78;49.61
11678;BME280;5895;41.950;24.372;2022-07-05T08:59:32;87235.44;;;24.90;49.41
11678;BME280;5895;41.950;24.372;2022-07-05T09:02:01;87242.22;;;24.96;49.82
11678;BME280;5895;41.950;24.372;2022-07-05T09:04:31;87240.84;;;24.98;49.10
11678;BME280;5895;41.950;24.372;2022-07-05T09:07:03;87239.84;;;25.08;48.82
11678;BME280;5895;41.950;24.372;2022-07-05T09:09:33;87244.88;;;25.10;49.27
11678;BME280;5895;41.950;24.372;2022-07-05T09:12:01;87237.25;;;25.17;49.16
11678;BME280;5895;41.950;24.372;2022-07-05T09:14:28;87244.50;;;25.25;48.89
11678;BME280;5895;41.950;24.372;2022-07-05T09:16:57;87251.75;;;25.33;49.24
11678;BME280;5895;41.950;24.372;2022-07-05T09:19:26;87245.06;;;25.36;47.75
11678;BME280;5895;41.950;24.372;2022-07-05T09:22:01;87247.72;;;25.36;46.50
11678;BME280;5895;41.950;24.372;2022-07-05T09:24:29;87243.25;;;25.45;49.18
11678;BME280;5895;41.950;24.372;2022-07-05T09:27:02;87243.31;;;25.53;46.98
11678;BME280;5895;41.950;24.372;2022-07-05T09:29:30;87244.75;;;25.59;48.33
11678;BME280;5895;41.950;24.372;2022-07-05T09:31:57;87226.81;;;25.65;48.43
11678;BME280;5895;41.950;24.372;2022-07-05T09:34:28;87237.63;;;25.69;47.20
11678;BME280;5895;41.950;24.372;2022-07-05T09:36:58;87228.94;;;25.77;48.71
11678;BME280;5895;41.950;24.372;2022-07-05T09:39:39;87227.41;;;25.84;46.59
11678;BME280;5895;41.950;24.372;2022-07-05T09:42:11;87226.69;;;25.93;46.30
11678;BME280;5895;41.950;24.372;2022-07-05T09:44:40;87229.81;;;25.95;47.92
11678;BME280;5895;41.950;24.372;2022-07-05T09:47:09;87222.94;;;25.94;48.37
11678;BME280;5895;41.950;24.372;2022-07-05T09:49:42;87225.63;;;26.02;47.09
11678;BME280;5895;41.950;24.372;2022-07-05T09:52:10;87226.75;;;26.10;48.47
11678;BME280;5895;41.950;24.372;2022-07-05T09:54:37;87225.41;;;26.21;48.68
11678;BME280;5895;41.950;24.372;2022-07-05T09:57:06;87215.22;;;26.23;48.12
11678;BME280;5895;41.950;24.372;2022-07-05T09:59:33;87211.94;;;26.26;48.14
11678;BME280;5895;41.950;24.372;2022-07-05T10:02:00;87215.41;;;26.27;47.97
11678;BME280;5895;41.950;24.372;2022-07-05T10:04:27;87208.66;;;26.29;47.98
11678;BME280;5895;41.950;24.372;2022-07-05T10:06:56;87209.38;;;26.44;47.20
11678;BME280;5895;41.950;24.372;2022-07-05T10:09:23;87214.41;;;26.54;47.85
11678;BME280;5895;41.950;24.372;2022-07-05T10:11:50;87214.13;;;26.64;47.55
11678;BME280;5895;41.950;24.372;2022-07-05T10:14:19;87219.75;;;26.71;47.33
11678;BME280;5895;41.950;24.372;2022-07-05T10:16:59;87210.69;;;26.81;44.28
11678;BME280;5895;41.950;24.372;2022-07-05T10:19:31;87215.41;;;26.84;45.92
11678;BME280;5895;41.950;24.372;2022-07-05T10:22:01;87211.50;;;26.90;45.90
11678;BME280;5895;41.950;24.372;2022-07-05T10:24:33;87212.91;;;26.87;45.26
11678;BME280;5895;41.950;24.372;2022-07-05T10:27:05;87208.34;;;26.88;45.24
11678;BME280;5895;41.950;24.372;2022-07-05T10:29:33;87205.84;;;26.92;47.11
11678;BME280;5895;41.950;24.372;2022-07-05T10:32:01;87212.59;;;26.98;47.48
11678;BME280;5895;41.950;24.372;2022-07-05T10:34:32;87207.13;;;26.94;45.18
11678;BME280;5895;41.950;24.372;2022-07-05T10:37:01;87202.25;;;26.87;46.85
11678;BME280;5895;41.950;24.372;2022-07-05T10:39:28;87205.88;;;27.00;47.37
11678;BME280;5895;41.950;24.372;2022-07-05T10:41:56;87199.78;;;27.00;47.20
11678;BME280;5895;41.950;24.372;2022-07-05T10:44:30;87201.63;;;26.99;43.98
11678;BME280;5895;41.950;24.372;2022-07-05T10:47:07;87199.28;;;26.98;42.81
11678;BME280;5895;41.950;24.372;2022-07-05T10:49:36;87210.44;;;27.00;47.08
11678;BME280;5895;41.950;24.372;2022-07-05T10:52:21;87205.13;;;27.17;44.12
11678;BME280;5895;41.950;24.372;2022-07-05T10:55:18;87187.88;;;27.40;43.40
11678;BME280;5895;41.950;24.372;2022-07-05T10:58:18;87196.94;;;27.57;44.67
11678;BME280;5895;41.950;24.372;2022-07-05T11:00:46;87197.88;;;27.61;47.27
11678;BME280;5895;41.950;24.372;2022-07-05T11:03:33;87192.56;;;27.78;44.02
11678;BME280;5895;41.950;24.372;2022-07-05T11:22:24;87191.78;;;28.63;44.74
11678;BME280;5895;41.950;24.372;2022-07-05T11:24:52;87183.03;;;28.54;45.01
11678;BME280;5895;41.950;24.372;2022-07-05T11:27:19;87192.47;;;28.51;45.64
11678;BME280;5895;41.950;24.372;2022-07-05T11:29:48;87192.22;;;28.65;45.43
11678;BME280;5895;41.950;24.372;2022-07-05T11:32:16;87187.63;;;28.74;45.91
11678;BME280;5895;41.950;24.372;2022-07-05T11:34:45;87175.97;;;28.79;45.55
11678;BME280;5895;41.950;24.372;2022-07-05T11:37:20;87179.63;;;28.74;43.43
11678;BME280;5895;41.950;24.372;2022-07-05T11:40:29;87187.06;;;28.89;42.38
11678;BME280;5895;41.950;24.372;2022-07-05T11:42:57;87183.16;;;28.87;45.61
11678;BME280;5895;41.950;24.372;2022-07-05T11:45:24;87180.91;;;28.97;45.69
11678;BME280;5895;41.950;24.372;2022-07-05T11:47:54;87176.69;;;28.96;45.10
11678;BME280;5895;41.950;24.372;2022-07-05T11:50:30;87175.91;;;28.96;43.42
11678;BME280;5895;41.950;24.372;2022-07-05T11:52:59;87183.41;;;29.03;45.55
11678;BME280;5895;41.950;24.372;2022-07-05T11:55:30;87175.38;;;29.03;45.49
11678;BME280;5895;41.950;24.372;2022-07-05T11:57:58;87172.78;;;29.15;46.53
11678;BME280;5895;41.950;24.372;2022-07-05T12:00:27;87173.03;;;29.22;46.28
11678;BME280;5895;41.950;24.372;2022-07-05T12:02:54;87171.06;;;29.31;46.53
11678;BME280;5895;41.950;24.372;2022-07-05T12:05:21;87171.13;;;29.43;46.05
11678;BME280;5895;41.950;24.372;2022-07-05T12:07:50;87168.84;;;29.54;45.55
11678;BME280;5895;41.950;24.372;2022-07-05T12:10:18;87173.88;;;29.56;45.69
11678;BME280;5895;41.950;24.372;2022-07-05T12:13:08;87163.84;;;29.53;42.68
11678;BME280;5895;41.950;24.372;2022-07-05T12:15:36;87170.78;;;29.66;45.87
11678;BME280;5895;41.950;24.372;2022-07-05T12:18:06;87171.94;;;29.77;45.68
11678;BME280;5895;41.950;24.372;2022-07-05T12:20:36;87170.63;;;29.83;45.46
11678;BME280;5895;41.950;24.372;2022-07-05T12:23:04;87176.22;;;29.90;45.33
11678;BME280;5895;41.950;24.372;2022-07-05T12:25:33;87162.41;;;29.88;45.44
11678;BME280;5895;41.950;24.372;2022-07-05T12:28:02;87169.31;;;29.89;44.84
11678;BME280;5895;41.950;24.372;2022-07-05T12:30:33;87162.53;;;29.92;45.22
11678;BME280;5895;41.950;24.372;2022-07-05T12:33:03;87172.22;;;29.96;45.28
11678;BME280;5895;41.950;24.372;2022-07-05T12:35:36;87165.50;;;29.90;43.20
11678;BME280;5895;41.950;24.372;2022-07-05T12:38:04;87153.38;;;29.93;45.37
11678;BME280;5895;41.950;24.372;2022-07-05T12:40:33;87152.88;;;29.78;45.26
11678;BME280;5895;41.950;24.372;2022-07-05T12:43:05;87153.19;;;29.65;43.16
11678;BME280;5895;41.950;24.372;2022-07-05T12:45:34;87156.06;;;29.60;44.62
11678;BME280;5895;41.950;24.372;2022-07-05T12:48:03;87162.72;;;29.54;45.75
11678;BME280;5895;41.950;24.372;2022-07-05T12:50:47;87153.19;;;29.65;42.73
11678;BME280;5895;41.950;24.372;2022-07-05T12:53:15;87151.19;;;29.74;45.79
11678;BME280;5895;41.950;24.372;2022-07-05T12:56:01;87142.28;;;29.70;45.14
11678;BME280;5895;41.950;24.372;2022-07-05T12:58:47;87152.06;;;29.45;45.60
11678;BME280;5895;41.950;24.372;2022-07-05T13:01:24;87146.63;;;29.41;42.45
11678;BME280;5895;41.950;24.372;2022-07-05T13:03:58;87152.16;;;29.36;44.29
11678;BME280;5895;41.950;24.372;2022-07-05T13:06:43;87139.63;;;29.28;42.03
11678;BME280;5895;41.950;24.372;2022-07-05T13:09:11;87147.84;;;29.23;45.74
11678;BME280;5895;41.950;24.372;2022-07-05T13:11:39;87146.03;;;29.15;45.89
11678;BME280;5895;41.950;24.372;2022-07-05T13:14:07;87144.88;;;29.04;46.32
11678;BME280;5895;41.950;24.372;2022-07-05T13:16:36;87144.22;;;29.07;46.01
11678;BME280;5895;41.950;24.372;2022-07-05T13:19:07;87148.19;;;29.01;43.94
11678;BME280;5895;41.950;24.372;2022-07-05T13:21:35;87150.94;;;28.83;46.17
11678;BME280;5895;41.950;24.372;2022-07-05T13:24:03;87140.28;;;28.83;45.70
11678;BME280;5895;41.950;24.372;2022-07-05T13:26:31;87150.88;;;28.71;46.17
11678;BME280;5895;41.950;24.372;2022-07-05T13:28:58;87141.50;;;28.65;46.68
11678;BME280;5895;41.950;24.372;2022-07-05T13:31:25;87138.63;;;28.70;46.20